»·PEaware :: N378SM KSMX-KBFL

N378SM :: KSMX-KBFL

FLIGHT INFORMATION

Flight Status: Arrived
Operator: Privately registered:
United States
More flights under this callsign
Pilot: Scott McKillop (2435)
Aircraft: CESSNA 172 SKYHAWK
(C172)
More flights by this aircraft type
Origin: KSMX Santa Maria Pub/Capt Hancock
United States
Destination: KBFL Meadows
United States
More flights between these airports :: More routes between these airports
Route: FLW EHF
File this flight plan on PilotEdge
Remarks: CAT5
Altitude:
(Current/Filed)
5,500ft
Speed:
(Current/Filed)
120kts
Departed: 04-Jun-17 01:40 PM
Arrived: 04-Jun-17 02:27 PM
Distance/Time
Traveled:
76nm/0:47
Distance/Time
To Go:
Arrived

Flight Plot

Page will automatically refresh every two minutes.


Map Options




Map Legend


Flown Route
Filed Route
Departure Airport
Arrival Airport
Navaid (VOR, NDB)
Fix

Horizontal Profiles

Position Reports

Time Latitude Longitude Heading Altitude Ground
Speed
04-Jun-17 13:26 34.904765 -120.454562 228 264ft 0kts
04-Jun-17 13:27 34.904765 -120.454562 228 264ft 0kts
04-Jun-17 13:28 34.904765 -120.454562 228 264ft 0kts
04-Jun-17 13:29 34.904765 -120.454562 228 264ft 0kts
04-Jun-17 13:30 34.904765 -120.454562 228 264ft 0kts
04-Jun-17 13:31 34.904765 -120.454562 228 264ft 0kts
04-Jun-17 13:32 34.904765 -120.454562 228 264ft 0kts
04-Jun-17 13:33 34.904731 -120.454607 228 264ft 1kts
04-Jun-17 13:34 34.904030 -120.455607 223 264ft 0kts
04-Jun-17 13:35 34.904030 -120.455607 223 264ft 0kts
04-Jun-17 13:36 34.903145 -120.455761 138 264ft 10kts
04-Jun-17 13:37 34.900403 -120.452480 135 264ft 17kts
04-Jun-17 13:38 34.897163 -120.448585 133 264ft 18kts
04-Jun-17 13:39 34.894102 -120.445217 184 264ft 10kts
04-Jun-17 13:40 34.893358 -120.445225 180 264ft 0kts
04-Jun-17 13:41 34.893739 -120.446991 316 264ft 40kts
04-Jun-17 13:42 34.909453 -120.465744 317 829ft 91kts
04-Jun-17 13:43 34.930128 -120.466724 42 1597ft 92kts
04-Jun-17 13:44 34.947920 -120.444735 38 2351ft 92kts
04-Jun-17 13:45 34.964615 -120.419696 71 2927ft 105kts
04-Jun-17 13:46 34.971988 -120.384346 71 3422ft 109kts
04-Jun-17 13:47 34.979461 -120.348535 71 3913ft 109kts
04-Jun-17 13:48 34.986932 -120.312747 71 4403ft 108kts
04-Jun-17 13:49 34.994255 -120.277597 71 4887ft 105kts
04-Jun-17 13:50 35.001296 -120.243507 71 5375ft 102kts
04-Jun-17 13:51 35.009151 -120.206747 72 5497ft 122kts
04-Jun-17 13:52 35.022166 -120.168476 52 5492ft 125kts
04-Jun-17 13:53 35.042821 -120.132679 51 5487ft 131kts
04-Jun-17 13:54 35.064207 -120.096016 51 5485ft 133kts
04-Jun-17 13:55 35.082874 -120.061826 79 5479ft 123kts
04-Jun-17 13:56 35.086850 -120.021384 82 5482ft 119kts
04-Jun-17 13:57 35.090934 -119.981061 82 5480ft 119kts
04-Jun-17 13:58 35.098436 -119.941829 65 5480ft 119kts
04-Jun-17 13:59 35.111068 -119.905294 65 5479ft 119kts
04-Jun-17 14:00 35.124583 -119.868310 62 5478ft 119kts
04-Jun-17 14:01 35.139102 -119.831836 62 5477ft 119kts
04-Jun-17 14:02 35.154012 -119.795602 60 5475ft 119kts
04-Jun-17 14:03 35.169802 -119.759874 60 5472ft 119kts
04-Jun-17 14:04 35.184927 -119.725651 60 5470ft 120kts
04-Jun-17 14:05 35.200513 -119.689682 60 5467ft 120kts
04-Jun-17 14:06 35.216400 -119.653807 58 5464ft 120kts
04-Jun-17 14:07 35.232496 -119.617687 58 5460ft 121kts
04-Jun-17 14:08 35.245671 -119.587475 58 5458ft 120kts
04-Jun-17 14:09 35.261260 -119.551018 58 5456ft 120kts
04-Jun-17 14:10 35.279295 -119.508996 56 5454ft 119kts
04-Jun-17 14:11 35.292673 -119.479355 56 5455ft 119kts
04-Jun-17 14:12 35.308678 -119.443893 56 5455ft 119kts
04-Jun-17 14:13 35.324734 -119.408319 56 5455ft 119kts
04-Jun-17 14:14 35.343409 -119.366944 56 5459ft 119kts
04-Jun-17 14:15 35.356726 -119.337429 56 5225ft 127kts
04-Jun-17 14:16 35.374062 -119.299444 56 4523ft 125kts
04-Jun-17 14:17 35.389935 -119.262409 58 3813ft 120kts
04-Jun-17 14:18 35.404031 -119.228185 58 3516ft 100kts
04-Jun-17 14:19 35.413348 -119.198332 93 3507ft 96kts
04-Jun-17 14:20 35.405154 -119.163369 111 3380ft 114kts
04-Jun-17 14:21 35.391778 -119.126606 117 3179ft 122kts
04-Jun-17 14:22 35.374362 -119.086923 122 2731ft 132kts
04-Jun-17 14:23 35.368459 -119.045753 80 2078ft 121kts
04-Jun-17 14:24 35.382731 -119.017431 48 1662ft 96kts
04-Jun-17 14:25 35.399671 -119.016287 325 1360ft 60kts
04-Jun-17 14:26 35.413386 -119.031268 315 994ft 68kts
04-Jun-17 14:27 35.424298 -119.044586 314 644ft 50kts
04-Jun-17 14:28 35.433774 -119.056195 315 509ft 43kts
04-Jun-17 14:29 35.436334 -119.057700 80 509ft 0kts
04-Jun-17 14:30 35.434603 -119.054884 135 509ft 21kts
04-Jun-17 14:31 35.430283 -119.049670 134 509ft 19kts
04-Jun-17 14:32 35.429165 -119.047009 318 509ft 7kts
04-Jun-17 14:33 35.429440 -119.046583 139 509ft 0kts
04-Jun-17 14:34 35.429440 -119.046583 139 509ft 0kts

Navigation Log

Ident Type
1. KSMX Airport
2. FLW Navaid
3. EHF Navaid
4. KBFL Airport